Time;durP1;ratioP1;P1;durP2;ratioP2;P2;SDS_P1;SDS_P2;PMS_P1;PMS_P2;Temp;Humidity;BMP_temperature;BMP_pressure;BME280_temperature;BME280_humidity;BME280_pressure;Samples;Min_cycle;Max_cycle;Signal;HPM_P1;HPM_P2
2024/01/12 00:00:29;;;;;;;45.43;19.33;;;;;;;;;;5050146;28;20029;-69
2024/01/12 00:02:55;;;;;;;50.50;21.90;;;;;;;;;;5041723;28;20025;-70
2024/01/12 00:05:20;;;;;;;46.07;20.13;;;;;;;;;;5029782;28;20029;-70
2024/01/12 00:07:46;;;;;;;59.00;21.50;;;;;;;;;;5030113;28;20024;-70
2024/01/12 00:10:13;;;;;;;43.90;19.80;;;;;;;;;;5028422;28;20117;-69
2024/01/12 00:12:38;;;;;;;50.00;19.77;;;;;;;;;;5028522;28;20480;-70
2024/01/12 00:15:05;;;;;;;45.53;20.10;;;;;;;;;;5028289;28;20124;-69
2024/01/12 00:17:31;;;;;;;54.37;23.10;;;;;;;;;;5028475;28;20083;-69
2024/01/12 00:19:56;;;;;;;59.20;21.20;;;;;;;;;;5029415;28;20370;-70
2024/01/12 00:22:22;;;;;;;47.53;21.83;;;;;;;;;;5028391;28;20021;-69
2024/01/12 00:24:49;;;;;;;59.07;21.43;;;;;;;;;;5027939;28;20493;-69
2024/01/12 00:27:16;;;;;;;52.37;20.73;;;;;;;;;;5031453;28;20078;-70
2024/01/12 00:29:41;;;;;;;48.87;20.10;;;;;;;;;;5030128;28;20023;-69
2024/01/12 00:32:07;;;;;;;36.70;17.30;;;;;;;;;;5041798;28;20032;-70
2024/01/12 00:34:33;;;;;;;36.50;19.17;;;;;;;;;;5047474;28;20122;-71
2024/01/12 00:36:59;;;;;;;47.73;19.37;;;;;;;;;;5048424;28;20491;-69
2024/01/12 00:39:26;;;;;;;45.13;17.53;;;;;;;;;;5048105;28;20082;-68
2024/01/12 00:41:52;;;;;;;34.13;16.83;;;;;;;;;;5047600;28;20369;-70
2024/01/12 00:44:18;;;;;;;49.87;20.07;;;;;;;;;;5047985;28;20033;-69
2024/01/12 00:46:45;;;;;;;40.97;18.23;;;;;;;;;;5032082;28;20029;-68
2024/01/12 00:49:11;;;;;;;44.63;17.93;;;;;;;;;;5029513;28;20416;-70
2024/01/12 00:51:37;;;;;;;42.53;15.60;;;;;;;;;;5027724;28;20029;-69
2024/01/12 00:54:04;;;;;;;37.67;16.70;;;;;;;;;;5027857;28;20401;-70
2024/01/12 00:56:29;;;;;;;45.83;18.60;;;;;;;;;;5027794;28;20029;-70
2024/01/12 00:58:55;;;;;;;44.97;16.47;;;;;;;;;;5027793;28;20422;-69
2024/01/12 01:01:22;;;;;;;45.10;17.53;;;;;;;;;;5029672;28;20381;-69
2024/01/12 01:03:48;;;;;;;41.20;15.77;;;;;;;;;;5028798;28;20025;-68
2024/01/12 01:06:13;;;;;;;39.30;16.97;;;;;;;;;;5028410;28;20021;-69
2024/01/12 01:08:40;;;;;;;35.37;15.20;;;;;;;;;;5031174;28;20026;-69
2024/01/12 01:11:06;;;;;;;30.00;13.80;;;;;;;;;;5031441;28;20025;-68
2024/01/12 01:13:35;;;;;;;39.83;15.30;;;;;;;;;;5032741;28;20025;-69
2024/01/12 01:16:02;;;;;;;27.63;12.97;;;;;;;;;;5051431;28;20484;-70
2024/01/12 01:18:30;;;;;;;34.77;13.47;;;;;;;;;;5050940;28;20154;-69
2024/01/12 01:20:57;;;;;;;26.13;11.70;;;;;;;;;;5052175;28;20033;-69
2024/01/12 01:23:22;;;;;;;33.87;12.03;;;;;;;;;;5052402;28;20123;-68
2024/01/12 01:25:50;;;;;;;35.33;13.10;;;;;;;;;;5051724;28;20155;-69
2024/01/12 01:28:15;;;;;;;31.70;13.40;;;;;;;;;;5050321;28;20025;-69
2024/01/12 01:30:41;;;;;;;28.50;11.90;;;;;;;;;;5052376;28;20032;-68
2024/01/12 01:33:08;;;;;;;27.37;12.80;;;;;;;;;;5050327;28;20108;-69
2024/01/12 01:35:34;;;;;;;36.23;13.30;;;;;;;;;;5052001;28;20472;-70
2024/01/12 01:37:59;;;;;;;29.27;12.53;;;;;;;;;;5051487;28;20032;-69
2024/01/12 01:40:26;;;;;;;26.13;11.53;;;;;;;;;;5052036;28;20029;-70
2024/01/12 01:42:52;;;;;;;25.20;11.23;;;;;;;;;;5049384;28;21462;-69
2024/01/12 01:45:18;;;;;;;19.47;9.90;;;;;;;;;;5032106;28;20033;-69
2024/01/12 01:47:45;;;;;;;25.80;12.13;;;;;;;;;;5032699;28;20025;-69
2024/01/12 01:50:16;;;;;;;26.50;10.70;;;;;;;;;;5033596;28;20514;-69
2024/01/12 01:52:44;;;;;;;24.63;10.27;;;;;;;;;;5033466;28;20021;-69
2024/01/12 01:55:12;;;;;;;24.77;9.80;;;;;;;;;;5030882;28;20049;-70
2024/01/12 01:57:39;;;;;;;28.03;11.07;;;;;;;;;;5030770;28;20017;-70
2024/01/12 02:00:06;;;;;;;22.90;10.53;;;;;;;;;;5033268;28;20553;-69
2024/01/12 02:02:34;;;;;;;23.47;10.70;;;;;;;;;;5034804;28;20511;-71
2024/01/12 02:05:01;;;;;;;22.33;9.70;;;;;;;;;;5030933;28;20025;-69
2024/01/12 02:07:26;;;;;;;20.90;8.37;;;;;;;;;;5031936;28;20144;-70
2024/01/12 02:09:52;;;;;;;21.83;10.27;;;;;;;;;;5030128;28;20025;-69
2024/01/12 02:12:18;;;;;;;19.97;8.43;;;;;;;;;;5041423;28;20043;-69
2024/01/12 02:14:43;;;;;;;18.47;8.07;;;;;;;;;;5049877;28;20029;-69
2024/01/12 02:17:10;;;;;;;22.10;8.77;;;;;;;;;;5049108;28;20029;-69
2024/01/12 02:19:36;;;;;;;14.53;8.37;;;;;;;;;;5051292;28;20055;-70
2024/01/12 02:22:01;;;;;;;19.93;8.40;;;;;;;;;;5049774;28;20056;-69
2024/01/12 02:24:27;;;;;;;15.40;7.93;;;;;;;;;;5049765;28;20472;-69
2024/01/12 02:26:53;;;;;;;13.97;7.13;;;;;;;;;;5038642;28;20022;-69
2024/01/12 02:29:19;;;;;;;21.07;8.40;;;;;;;;;;5029968;28;20028;-69
2024/01/12 02:31:46;;;;;;;17.87;7.90;;;;;;;;;;5029526;28;20021;-69
2024/01/12 02:34:14;;;;;;;15.80;7.70;;;;;;;;;;5042849;28;20533;-68
2024/01/12 02:36:39;;;;;;;16.33;7.03;;;;;;;;;;5032677;28;20112;-71
2024/01/12 02:39:05;;;;;;;17.93;8.60;;;;;;;;;;5030421;28;20536;-68
2024/01/12 02:41:30;;;;;;;14.97;7.50;;;;;;;;;;5030762;28;20487;-68
2024/01/12 02:43:56;;;;;;;16.00;7.23;;;;;;;;;;5030495;28;20025;-68
2024/01/12 02:46:23;;;;;;;17.60;7.83;;;;;;;;;;5012745;28;20068;-68
2024/01/12 02:48:48;;;;;;;13.70;7.40;;;;;;;;;;5046307;28;20040;-68
2024/01/12 02:51:14;;;;;;;11.43;5.97;;;;;;;;;;5048831;28;20040;-70
2024/01/12 02:53:41;;;;;;;15.13;7.60;;;;;;;;;;5050566;28;20045;-67
2024/01/12 02:56:06;;;;;;;14.83;7.07;;;;;;;;;;5050712;28;20078;-70
2024/01/12 02:58:32;;;;;;;18.63;8.17;;;;;;;;;;5049702;28;20033;-71
2024/01/12 03:00:59;;;;;;;17.40;7.43;;;;;;;;;;5049412;28;20024;-70
2024/01/12 03:03:26;;;;;;;20.80;8.33;;;;;;;;;;5048549;28;20031;-69
2024/01/12 03:05:52;;;;;;;15.73;6.83;;;;;;;;;;5048867;28;20025;-71
2024/01/12 03:08:18;;;;;;;15.10;7.43;;;;;;;;;;5048563;28;20020;-69
2024/01/12 03:10:44;;;;;;;19.43;7.67;;;;;;;;;;5048815;28;20036;-70
2024/01/12 03:13:09;;;;;;;15.60;7.00;;;;;;;;;;5050017;28;20032;-70
2024/01/12 03:15:35;;;;;;;15.40;7.23;;;;;;;;;;5047735;28;20530;-70
2024/01/12 03:18:00;;;;;;;17.43;7.23;;;;;;;;;;5028849;28;20031;-71
2024/01/12 03:20:26;;;;;;;20.50;7.10;;;;;;;;;;5029482;28;20125;-68
2024/01/12 03:22:52;;;;;;;14.63;6.53;;;;;;;;;;5030098;28;20060;-69
2024/01/12 03:25:17;;;;;;;16.57;6.93;;;;;;;;;;5033738;28;20061;-69
2024/01/12 03:27:43;;;;;;;17.33;6.83;;;;;;;;;;5032285;28;20028;-70
2024/01/12 03:30:09;;;;;;;13.53;6.70;;;;;;;;;;5028287;28;20033;-70
2024/01/12 03:32:35;;;;;;;18.63;7.30;;;;;;;;;;5030012;28;20021;-68
2024/01/12 03:35:01;;;;;;;14.23;6.73;;;;;;;;;;5028872;28;20389;-68
2024/01/12 03:37:26;;;;;;;12.83;5.97;;;;;;;;;;5028469;28;20034;-70
2024/01/12 03:39:52;;;;;;;14.67;6.47;;;;;;;;;;5030217;28;20021;-69
2024/01/12 03:42:17;;;;;;;11.93;5.47;;;;;;;;;;5030914;28;20021;-69
2024/01/12 03:44:43;;;;;;;12.90;6.40;;;;;;;;;;5032656;28;20100;-70
2024/01/12 03:47:09;;;;;;;12.20;6.73;;;;;;;;;;5028490;28;20049;-70
2024/01/12 03:49:36;;;;;;;12.97;6.23;;;;;;;;;;5029826;28;20033;-70
2024/01/12 03:52:03;;;;;;;13.77;5.67;;;;;;;;;;5027954;28;20025;-70
2024/01/12 03:54:29;;;;;;;11.40;5.50;;;;;;;;;;5029111;28;20061;-71
2024/01/12 03:56:56;;;;;;;11.40;5.73;;;;;;;;;;5028035;28;20373;-69
2024/01/12 03:59:21;;;;;;;12.00;6.27;;;;;;;;;;5035555;28;20029;-69
2024/01/12 04:01:47;;;;;;;15.00;6.13;;;;;;;;;;5049121;28;20040;-70
2024/01/12 04:04:13;;;;;;;14.00;6.23;;;;;;;;;;5049091;28;20053;-68
2024/01/12 04:06:42;;;;;;;11.47;5.33;;;;;;;;;;5049494;28;20025;-70
2024/01/12 04:09:12;;;;;;;11.77;5.43;;;;;;;;;;5048056;28;20040;-70
2024/01/12 04:11:38;;;;;;;10.67;4.90;;;;;;;;;;5049310;28;20040;-72
2024/01/12 04:14:04;;;;;;;12.10;5.17;;;;;;;;;;5040948;28;20037;-69
2024/01/12 04:16:31;;;;;;;10.40;5.27;;;;;;;;;;5028147;28;20098;-70
2024/01/12 04:18:57;;;;;;;13.50;5.20;;;;;;;;;;5028121;28;20364;-71
2024/01/12 04:21:23;;;;;;;10.83;5.33;;;;;;;;;;5028051;28;20056;-70
2024/01/12 04:23:48;;;;;;;12.03;5.43;;;;;;;;;;5027299;28;20500;-71
2024/01/12 04:26:14;;;;;;;11.77;5.90;;;;;;;;;;5029196;28;20049;-69
2024/01/12 04:28:40;;;;;;;10.53;4.67;;;;;;;;;;5029579;28;20450;-70
2024/01/12 04:31:05;;;;;;;9.00;4.87;;;;;;;;;;5042114;28;20033;-70
2024/01/12 04:33:32;;;;;;;14.43;5.30;;;;;;;;;;5048392;28;20075;-69
2024/01/12 04:35:58;;;;;;;10.67;3.97;;;;;;;;;;5047972;28;20154;-69
2024/01/12 04:38:26;;;;;;;7.40;4.50;;;;;;;;;;5048103;28;20116;-69
2024/01/12 04:40:53;;;;;;;10.23;4.60;;;;;;;;;;5043490;28;20025;-68
2024/01/12 04:43:18;;;;;;;9.23;4.53;;;;;;;;;;5023147;28;20037;-68
2024/01/12 04:45:44;;;;;;;10.77;4.70;;;;;;;;;;5032152;28;20025;-70
2024/01/12 04:48:09;;;;;;;9.97;4.83;;;;;;;;;;5033262;28;20017;-70
2024/01/12 04:50:35;;;;;;;8.97;4.97;;;;;;;;;;5033254;28;20380;-70
2024/01/12 04:53:00;;;;;;;9.37;4.80;;;;;;;;;;5040349;28;20159;-68
2024/01/12 04:55:26;;;;;;;9.60;5.43;;;;;;;;;;5051030;28;20132;-71
2024/01/12 04:57:52;;;;;;;11.00;4.93;;;;;;;;;;5051412;28;20037;-70
2024/01/12 05:00:18;;;;;;;9.17;4.57;;;;;;;;;;5052182;28;20039;-69
2024/01/12 05:02:44;;;;;;;9.70;4.93;;;;;;;;;;5052528;28;20068;-70
2024/01/12 05:05:12;;;;;;;11.10;5.00;;;;;;;;;;5051763;28;20036;-73
2024/01/12 05:07:37;;;;;;;9.23;5.07;;;;;;;;;;5052710;28;20025;-71
2024/01/12 05:10:04;;;;;;;16.43;6.50;;;;;;;;;;5052626;28;20111;-69
2024/01/12 05:12:30;;;;;;;12.97;5.50;;;;;;;;;;5051431;28;20053;-70
2024/01/12 05:14:59;;;;;;;12.10;5.63;;;;;;;;;;5051645;28;20059;-68
2024/01/12 05:17:25;;;;;;;10.80;5.50;;;;;;;;;;5051179;28;20025;-70
2024/01/12 05:19:51;;;;;;;10.80;4.73;;;;;;;;;;5052643;28;20392;-70
2024/01/12 05:22:16;;;;;;;13.20;5.90;;;;;;;;;;5039342;28;20061;-70
2024/01/12 05:24:42;;;;;;;19.57;5.27;;;;;;;;;;5032262;28;20033;-70
2024/01/12 05:27:07;;;;;;;12.27;4.77;;;;;;;;;;5032199;28;20419;-70
2024/01/12 05:29:34;;;;;;;9.87;4.93;;;;;;;;;;5030912;28;20049;-69
2024/01/12 05:32:03;;;;;;;12.40;5.00;;;;;;;;;;5032034;28;20021;-70
2024/01/12 05:34:28;;;;;;;10.83;5.20;;;;;;;;;;5030811;28;20061;-70
2024/01/12 05:36:54;;;;;;;6.50;4.43;;;;;;;;;;5046047;28;20076;-68
2024/01/12 05:39:19;;;;;;;10.10;3.90;;;;;;;;;;5051911;28;20032;-69
2024/01/12 05:41:45;;;;;;;8.03;4.47;;;;;;;;;;5050557;28;20025;-68
2024/01/12 05:44:11;;;;;;;9.17;3.60;;;;;;;;;;5050280;28;20114;-69
2024/01/12 05:46:37;;;;;;;7.00;4.30;;;;;;;;;;5050590;28;20384;-71
2024/01/12 05:49:04;;;;;;;8.27;3.80;;;;;;;;;;5051214;28;20024;-70
2024/01/12 05:51:33;;;;;;;7.77;4.10;;;;;;;;;;5034064;28;20034;-69
2024/01/12 05:53:58;;;;;;;8.63;4.40;;;;;;;;;;5031595;28;20060;-69
2024/01/12 05:56:24;;;;;;;8.17;4.50;;;;;;;;;;5030243;28;20021;-69
2024/01/12 05:58:50;;;;;;;9.80;4.37;;;;;;;;;;5031738;28;20018;-69
2024/01/12 06:01:16;;;;;;;7.83;3.97;;;;;;;;;;5033388;28;20401;-69
2024/01/12 06:03:44;;;;;;;8.97;4.33;;;;;;;;;;5052993;28;20025;-70
2024/01/12 06:06:09;;;;;;;6.87;3.80;;;;;;;;;;5052550;28;20043;-68
2024/01/12 06:08:35;;;;;;;8.57;4.30;;;;;;;;;;5050415;28;20017;-69
2024/01/12 06:11:03;;;;;;;8.50;4.43;;;;;;;;;;5049991;28;20021;-69
2024/01/12 06:13:28;;;;;;;8.43;4.80;;;;;;;;;;5047677;28;20028;-71
2024/01/12 06:15:54;;;;;;;8.53;4.37;;;;;;;;;;5031358;28;20037;-70
2024/01/12 06:18:19;;;;;;;7.27;4.17;;;;;;;;;;5037731;28;20119;-69
2024/01/12 06:20:45;;;;;;;10.70;4.37;;;;;;;;;;5031046;28;20017;-70
2024/01/12 06:23:11;;;;;;;7.00;4.73;;;;;;;;;;5030448;28;20033;-71
2024/01/12 06:25:37;;;;;;;9.60;4.43;;;;;;;;;;5032178;28;20653;-69
2024/01/12 06:28:05;;;;;;;10.83;5.03;;;;;;;;;;5034693;28;20032;-69
2024/01/12 06:30:31;;;;;;;8.03;4.10;;;;;;;;;;5039343;28;20060;-71
2024/01/12 06:32:58;;;;;;;5.90;3.90;;;;;;;;;;5037548;28;20468;-69
2024/01/12 06:35:24;;;;;;;7.93;4.07;;;;;;;;;;5038984;28;20095;-67
2024/01/12 06:37:50;;;;;;;13.30;5.10;;;;;;;;;;5048628;28;20028;-69
2024/01/12 06:40:15;;;;;;;8.90;4.80;;;;;;;;;;5045697;28;20037;-69
2024/01/12 06:42:41;;;;;;;8.07;4.27;;;;;;;;;;5039880;28;20066;-69
2024/01/12 06:45:10;;;;;;;10.73;4.40;;;;;;;;;;5016718;28;20029;-70
2024/01/12 06:47:38;;;;;;;7.03;4.10;;;;;;;;;;5043843;28;20032;-70
2024/01/12 06:50:04;;;;;;;11.03;4.30;;;;;;;;;;5042173;28;20029;-70
2024/01/12 06:52:30;;;;;;;8.33;4.60;;;;;;;;;;5028979;28;20033;-68
2024/01/12 06:54:57;;;;;;;9.47;4.37;;;;;;;;;;5037371;28;20049;-70
2024/01/12 06:57:26;;;;;;;7.57;3.87;;;;;;;;;;5034891;28;20037;-71
2024/01/12 06:59:51;;;;;;;7.33;3.97;;;;;;;;;;5031071;28;20048;-70
2024/01/12 07:02:19;;;;;;;7.43;3.87;;;;;;;;;;5041842;28;20483;-72
2024/01/12 07:04:46;;;;;;;7.43;4.07;;;;;;;;;;5039027;28;20256;-70
2024/01/12 07:07:13;;;;;;;8.57;3.80;;;;;;;;;;5039768;28;20543;-70
2024/01/12 07:09:39;;;;;;;6.33;3.57;;;;;;;;;;5023942;28;20548;-70
2024/01/12 07:12:05;;;;;;;6.47;4.20;;;;;;;;;;5041639;28;20094;-70
2024/01/12 07:14:31;;;;;;;6.07;3.77;;;;;;;;;;5040977;28;20036;-69
2024/01/12 07:16:57;;;;;;;4.40;3.10;;;;;;;;;;5041990;28;20446;-69
2024/01/12 07:19:23;;;;;;;5.93;3.57;;;;;;;;;;5042064;28;20048;-72
2024/01/12 07:21:48;;;;;;;6.73;3.73;;;;;;;;;;5033274;28;20027;-70
2024/01/12 07:24:15;;;;;;;21.77;9.30;;;;;;;;;;5038608;28;20033;-71
2024/01/12 07:26:41;;;;;;;13.40;6.53;;;;;;;;;;5040594;28;20043;-70
2024/01/12 07:29:07;;;;;;;8.80;4.50;;;;;;;;;;5022718;28;20032;-70
2024/01/12 07:31:35;;;;;;;8.07;4.10;;;;;;;;;;5062558;28;20074;-71
2024/01/12 07:34:02;;;;;;;14.03;7.37;;;;;;;;;;5036078;28;20734;-70
2024/01/12 07:36:28;;;;;;;20.90;8.23;;;;;;;;;;5036576;28;20048;-71
2024/01/12 07:38:54;;;;;;;15.57;7.70;;;;;;;;;;5043799;28;20640;-70
2024/01/12 07:41:19;;;;;;;14.67;8.37;;;;;;;;;;5034550;28;20040;-72
2024/01/12 07:43:45;;;;;;;15.70;6.97;;;;;;;;;;5041426;28;20115;-70
2024/01/12 07:46:17;;;;;;;20.20;8.30;;;;;;;;;;5038310;28;20480;-71
2024/01/12 07:48:43;;;;;;;11.75;5.90;;;;;;;;;;5040137;28;20033;-68
2024/01/12 07:51:08;;;;;;;10.57;4.53;;;;;;;;;;5035953;28;20511;-73
2024/01/12 07:53:34;;;;;;;10.77;6.07;;;;;;;;;;5040459;28;20076;-69
2024/01/12 07:56:00;;;;;;;19.20;8.97;;;;;;;;;;5037160;28;20029;-70
2024/01/12 07:58:25;;;;;;;17.30;8.03;;;;;;;;;;5037167;28;20115;-68
2024/01/12 08:00:52;;;;;;;16.77;5.90;;;;;;;;;;5035677;28;20037;-69
2024/01/12 08:03:17;;;;;;;12.97;5.47;;;;;;;;;;5038348;28;20072;-69
2024/01/12 08:05:43;;;;;;;17.77;6.97;;;;;;;;;;5038942;28;20444;-70
2024/01/12 08:08:10;;;;;;;15.40;6.30;;;;;;;;;;5026049;28;20128;-71
2024/01/12 08:10:35;;;;;;;13.63;6.57;;;;;;;;;;5032051;28;20038;-67
2024/01/12 08:13:03;;;;;;;12.60;6.70;;;;;;;;;;5018732;28;20068;-70
2024/01/12 08:15:29;;;;;;;15.00;6.30;;;;;;;;;;5026606;28;20057;-68
2024/01/12 08:17:57;;;;;;;14.20;6.87;;;;;;;;;;5038032;28;20028;-69
2024/01/12 08:20:22;;;;;;;19.37;8.40;;;;;;;;;;5023949;28;20771;-71
2024/01/12 08:22:48;;;;;;;17.03;8.40;;;;;;;;;;5044136;28;20446;-68
2024/01/12 08:25:15;;;;;;;18.50;9.17;;;;;;;;;;5029322;28;20757;-74
2024/01/12 08:27:41;;;;;;;18.37;9.03;;;;;;;;;;5031672;28;20742;-70
2024/01/12 08:30:09;;;;;;;21.10;8.63;;;;;;;;;;5039572;28;20067;-69
2024/01/12 08:32:38;;;;;;;22.47;9.00;;;;;;;;;;5042431;28;20033;-70
2024/01/12 08:35:04;;;;;;;16.17;7.57;;;;;;;;;;5037145;28;20571;-69
2024/01/12 08:37:29;;;;;;;17.40;7.57;;;;;;;;;;5039360;28;20172;-70
2024/01/12 08:39:55;;;;;;;21.83;9.33;;;;;;;;;;5052937;28;20029;-70
2024/01/12 08:42:21;;;;;;;15.57;8.07;;;;;;;;;;5044139;28;20767;-69
2024/01/12 08:44:47;;;;;;;18.43;9.03;;;;;;;;;;5040910;28;20025;-69
2024/01/12 08:47:19;;;;;;;20.13;8.73;;;;;;;;;;5035581;28;20771;-69
2024/01/12 08:49:45;;;;;;;22.33;10.10;;;;;;;;;;5045491;28;20056;-70
2024/01/12 08:52:11;;;;;;;17.33;9.33;;;;;;;;;;5040141;28;20036;-70
2024/01/12 08:54:47;;;;;;;22.70;8.77;;;;;;;;;;5036004;28;20049;-71
2024/01/12 08:57:16;;;;;;;20.53;9.60;;;;;;;;;;5034479;28;20064;-70
2024/01/12 08:59:42;;;;;;;19.03;9.50;;;;;;;;;;5038568;28;20071;-71
2024/01/12 09:02:08;;;;;;;27.23;11.60;;;;;;;;;;5037941;28;20065;-73
2024/01/12 09:04:35;;;;;;;25.23;9.73;;;;;;;;;;5032509;28;20473;-72
2024/01/12 09:07:05;;;;;;;24.27;11.00;;;;;;;;;;5040933;28;20048;-74
2024/01/12 09:09:37;;;;;;;23.30;10.20;;;;;;;;;;5042361;28;20120;-71
2024/01/12 09:12:04;;;;;;;23.05;9.35;;;;;;;;;;5044820;28;20134;-71
2024/01/12 09:14:30;;;;;;;20.77;9.27;;;;;;;;;;5029029;28;20075;-72
2024/01/12 09:16:56;;;;;;;23.33;9.63;;;;;;;;;;5033625;28;20116;-68
2024/01/12 09:19:25;;;;;;;23.47;9.50;;;;;;;;;;5042036;28;20051;-70
2024/01/12 09:21:52;;;;;;;23.80;9.90;;;;;;;;;;5041530;28;20024;-72
2024/01/12 09:24:30;;;;;;;22.17;10.13;;;;;;;;;;5030954;28;20036;-74
2024/01/12 09:26:56;;;;;;;19.80;9.50;;;;;;;;;;5035443;28;20020;-73
2024/01/12 09:29:22;;;;;;;20.93;8.63;;;;;;;;;;5026463;28;20520;-70
2024/01/12 09:31:48;;;;;;;23.97;9.97;;;;;;;;;;5043253;28;20029;-72
2024/01/12 09:34:16;;;;;;;20.87;9.67;;;;;;;;;;5033785;28;20424;-70
2024/01/12 09:36:42;;;;;;;16.87;8.13;;;;;;;;;;5042461;28;20036;-70
2024/01/12 09:39:14;;;;;;;19.33;8.87;;;;;;;;;;5040774;28;20377;-71
2024/01/12 09:41:49;;;;;;;25.02;9.13;;;;;;;;;;5042157;28;20056;-72
2024/01/12 09:44:22;;;;;;;19.77;8.93;;;;;;;;;;5037568;28;20593;-71
2024/01/12 09:46:59;;;;;;;19.23;8.57;;;;;;;;;;5025360;28;20446;-71
2024/01/12 09:49:29;;;;;;;16.00;8.37;;;;;;;;;;5035853;28;20026;-71
2024/01/12 09:52:01;;;;;;;18.93;8.40;;;;;;;;;;5046715;28;20037;-71
2024/01/12 09:54:27;;;;;;;20.90;9.17;;;;;;;;;;5038996;28;20049;-70
2024/01/12 09:56:56;;;;;;;19.03;8.03;;;;;;;;;;5042065;28;20047;-70
2024/01/12 09:59:23;;;;;;;17.63;8.60;;;;;;;;;;5065142;28;20029;-69
2024/01/12 10:01:50;;;;;;;23.63;8.73;;;;;;;;;;5042728;28;20021;-69
2024/01/12 10:04:15;;;;;;;17.43;8.33;;;;;;;;;;5046281;28;20033;-69
2024/01/12 10:06:41;;;;;;;15.73;7.60;;;;;;;;;;5052387;28;20325;-72
2024/01/12 10:09:08;;;;;;;22.47;8.00;;;;;;;;;;5045736;28;20380;-71
2024/01/12 10:11:35;;;;;;;21.53;8.87;;;;;;;;;;5046915;28;20024;-71
2024/01/12 10:14:01;;;;;;;21.67;8.40;;;;;;;;;;5046814;28;20056;-69
2024/01/12 10:16:30;;;;;;;14.60;8.50;;;;;;;;;;5047663;28;20100;-72
2024/01/12 10:18:57;;;;;;;19.73;9.93;;;;;;;;;;5044855;28;20045;-70
2024/01/12 10:21:24;;;;;;;28.73;14.03;;;;;;;;;;5047107;28;20044;-70
2024/01/12 10:24:10;;;;;;;19.73;9.07;;;;;;;;;;5040502;28;20036;-73
2024/01/12 10:26:37;;;;;;;16.60;7.77;;;;;;;;;;5032529;28;20338;-71
2024/01/12 10:29:04;;;;;;;11.27;6.17;;;;;;;;;;5041110;28;20025;-72
2024/01/12 10:31:30;;;;;;;15.43;6.67;;;;;;;;;;5019051;28;20037;-70
2024/01/12 10:34:00;;;;;;;18.27;6.40;;;;;;;;;;5036864;28;20509;-71
2024/01/12 10:36:28;;;;;;;21.93;7.17;;;;;;;;;;5041609;28;20060;-71
2024/01/12 10:39:00;;;;;;;15.90;6.63;;;;;;;;;;5038662;28;20625;-70
2024/01/12 10:41:27;;;;;;;13.18;5.88;;;;;;;;;;5037532;28;20024;-70
2024/01/12 10:43:59;;;;;;;13.60;6.73;;;;;;;;;;5038933;28;20094;-70
2024/01/12 10:46:44;;;;;;;;;;;;;;;;;;5040105;28;20025;-71
2024/01/12 10:49:19;;;;;;;13.40;6.33;;;;;;;;;;5038918;28;20242;-69
2024/01/12 10:52:12;;;;;;;18.87;6.33;;;;;;;;;;5034562;28;20025;-69
2024/01/12 10:54:45;;;;;;;10.23;6.13;;;;;;;;;;5017172;28;20060;-67
2024/01/12 10:57:12;;;;;;;16.80;6.90;;;;;;;;;;5035906;28;20045;-68
2024/01/12 10:59:40;;;;;;;21.00;8.67;;;;;;;;;;5030646;28;20100;-68
2024/01/12 11:02:09;;;;;;;13.53;6.37;;;;;;;;;;5042167;28;20036;-70
2024/01/12 11:04:36;;;;;;;15.17;5.93;;;;;;;;;;5042538;28;20025;-69
2024/01/12 11:07:03;;;;;;;10.03;6.50;;;;;;;;;;5039183;28;20190;-70
2024/01/12 11:09:28;;;;;;;15.50;6.77;;;;;;;;;;5039540;28;20071;-68
2024/01/12 11:12:10;;;;;;;14.33;6.67;;;;;;;;;;5036276;28;20057;-68
2024/01/12 11:14:38;;;;;;;14.43;6.75;;;;;;;;;;5035565;28;20493;-70
2024/01/12 11:17:07;;;;;;;18.57;6.67;;;;;;;;;;5037848;28;20087;-68
2024/01/12 11:19:33;;;;;;;13.33;6.87;;;;;;;;;;5040512;28;20116;-70
2024/01/12 11:22:17;;;;;;;14.93;6.70;;;;;;;;;;5040958;28;20045;-68
2024/01/12 11:24:43;;;;;;;16.40;7.53;;;;;;;;;;5034680;28;20152;-69
2024/01/12 11:27:12;;;;;;;14.20;6.63;;;;;;;;;;5040680;28;20025;-67
2024/01/12 11:29:41;;;;;;;11.77;5.77;;;;;;;;;;5037945;28;20036;-68
2024/01/12 11:32:06;;;;;;;13.63;6.87;;;;;;;;;;5046631;28;20084;-68
2024/01/12 11:34:38;;;;;;;17.17;7.20;;;;;;;;;;5035558;28;20065;-69
2024/01/12 11:37:12;;;;;;;12.38;6.18;;;;;;;;;;5042648;28;20477;-69
2024/01/12 11:39:38;;;;;;;18.07;8.70;;;;;;;;;;5030541;28;20142;-70
2024/01/12 11:42:07;;;;;;;13.57;7.20;;;;;;;;;;5039965;28;20421;-68
2024/01/12 11:44:35;;;;;;;17.43;7.73;;;;;;;;;;5034152;28;20037;-71
2024/01/12 11:47:01;;;;;;;16.27;7.80;;;;;;;;;;5036748;28;20380;-69
2024/01/12 11:49:27;;;;;;;23.90;8.03;;;;;;;;;;5042644;28;20141;-67
2024/01/12 11:52:06;;;;;;;19.80;8.33;;;;;;;;;;5028422;28;20484;-72
2024/01/12 11:54:31;;;;;;;17.77;8.80;;;;;;;;;;5043279;28;20045;-69
2024/01/12 11:57:03;;;;;;;19.20;7.30;;;;;;;;;;5040500;28;20032;-70
2024/01/12 11:59:29;;;;;;;20.52;8.88;;;;;;;;;;5048075;28;20108;-66
2024/01/12 12:01:55;;;;;;;19.57;10.30;;;;;;;;;;5047756;28;20461;-68
2024/01/12 12:04:21;;;;;;;18.40;8.07;;;;;;;;;;5044210;28;20037;-69
2024/01/12 12:06:49;;;;;;;21.07;9.10;;;;;;;;;;5042523;28;20154;-68
2024/01/12 12:09:15;;;;;;;20.87;8.07;;;;;;;;;;5033342;28;20048;-69
2024/01/12 12:11:41;;;;;;;22.07;8.37;;;;;;;;;;5040016;28;20033;-69
2024/01/12 12:14:06;;;;;;;25.53;11.23;;;;;;;;;;5041713;28;20089;-69
2024/01/12 12:16:33;;;;;;;20.50;9.33;;;;;;;;;;5031597;28;20244;-70
2024/01/12 12:18:59;;;;;;;15.60;8.07;;;;;;;;;;5027394;28;20040;-68
2024/01/12 12:21:24;;;;;;;14.83;7.93;;;;;;;;;;5035116;28;20021;-69
2024/01/12 12:23:51;;;;;;;21.17;9.73;;;;;;;;;;5036201;28;20037;-71
2024/01/12 12:26:17;;;;;;;13.57;7.47;;;;;;;;;;5013268;28;20037;-68
2024/01/12 12:28:47;;;;;;;16.67;7.73;;;;;;;;;;5022930;28;20063;-69
2024/01/12 12:31:13;;;;;;;15.17;7.87;;;;;;;;;;5031234;28;20381;-71
2024/01/12 12:33:44;;;;;;;13.53;7.13;;;;;;;;;;5037652;28;20040;-72
2024/01/12 12:36:10;;;;;;;19.80;8.40;;;;;;;;;;5041061;28;20064;-70
2024/01/12 12:38:37;;;;;;;22.27;8.53;;;;;;;;;;5042341;28;20104;-69
2024/01/12 12:41:05;;;;;;;15.30;8.20;;;;;;;;;;5040429;28;20026;-68
2024/01/12 12:43:31;;;;;;;14.47;7.43;;;;;;;;;;5051037;28;20033;-69
2024/01/12 12:45:57;;;;;;;42.13;15.83;;;;;;;;;;5038788;28;20029;-68
2024/01/12 12:48:25;;;;;;;16.90;8.70;;;;;;;;;;5038256;28;20112;-69
2024/01/12 12:50:52;;;;;;;15.23;7.63;;;;;;;;;;5040241;28;20403;-69
2024/01/12 12:53:19;;;;;;;22.07;11.30;;;;;;;;;;5034568;28;20107;-70
2024/01/12 12:55:46;;;;;;;16.70;8.67;;;;;;;;;;5040901;28;20361;-71
2024/01/12 12:58:13;;;;;;;21.10;8.83;;;;;;;;;;5035910;28;20027;-69
2024/01/12 13:00:38;;;;;;;14.20;7.30;;;;;;;;;;5031033;28;20044;-70
2024/01/12 13:03:04;;;;;;;15.93;7.83;;;;;;;;;;5039534;28;20033;-68
2024/01/12 13:05:36;;;;;;;16.97;7.63;;;;;;;;;;5047214;28;20522;-68
2024/01/12 13:08:03;;;;;;;17.40;7.90;;;;;;;;;;5043983;28;20578;-70
2024/01/12 13:10:28;;;;;;;22.33;8.27;;;;;;;;;;5047863;28;20083;-67
2024/01/12 13:12:54;;;;;;;19.47;8.57;;;;;;;;;;5044067;28;20132;-69
2024/01/12 13:15:20;;;;;;;17.20;8.27;;;;;;;;;;5044874;28;20021;-68
2024/01/12 13:17:45;;;;;;;16.20;7.13;;;;;;;;;;5036294;28;20033;-70
2024/01/12 13:20:12;;;;;;;21.93;11.03;;;;;;;;;;5041344;28;20062;-67
2024/01/12 13:22:38;;;;;;;16.23;8.27;;;;;;;;;;5048828;28;20028;-68
2024/01/12 13:25:06;;;;;;;16.57;9.43;;;;;;;;;;5048231;28;20128;-70
2024/01/12 13:27:31;;;;;;;36.47;18.17;;;;;;;;;;5032397;28;20124;-70
2024/01/12 13:29:57;;;;;;;17.57;7.60;;;;;;;;;;5045992;28;20552;-70
2024/01/12 13:32:23;;;;;;;14.07;6.97;;;;;;;;;;5044906;28;20037;-70
2024/01/12 13:34:49;;;;;;;10.53;6.07;;;;;;;;;;5043660;28;20120;-70
2024/01/12 13:37:15;;;;;;;13.77;6.40;;;;;;;;;;5048634;28;20116;-70
2024/01/12 13:39:42;;;;;;;15.47;7.50;;;;;;;;;;5041783;28;20060;-70
2024/01/12 13:42:08;;;;;;;14.43;6.53;;;;;;;;;;5044879;28;20160;-67
2024/01/12 13:44:33;;;;;;;11.43;5.67;;;;;;;;;;5043308;28;20116;-70
2024/01/12 13:46:59;;;;;;;12.03;6.53;;;;;;;;;;5045724;28;20032;-70
2024/01/12 13:49:25;;;;;;;15.53;6.13;;;;;;;;;;5045294;28;20040;-72
2024/01/12 13:51:50;;;;;;;38.93;13.23;;;;;;;;;;5046353;28;20036;-69
2024/01/12 13:54:16;;;;;;;13.33;6.83;;;;;;;;;;5041918;28;20065;-69
2024/01/12 13:56:42;;;;;;;8.43;5.13;;;;;;;;;;5031592;28;20048;-69
2024/01/12 13:59:08;;;;;;;8.83;5.03;;;;;;;;;;5046147;28;20037;-69
2024/01/12 14:01:34;;;;;;;8.73;5.00;;;;;;;;;;5048222;28;20033;-69
2024/01/12 14:04:03;;;;;;;17.37;5.33;;;;;;;;;;5044341;28;20043;-72
2024/01/12 14:06:31;;;;;;;9.60;4.80;;;;;;;;;;5032883;28;20503;-70
2024/01/12 14:08:58;;;;;;;13.20;5.87;;;;;;;;;;5036458;28;20031;-70
2024/01/12 14:11:25;;;;;;;20.50;7.83;;;;;;;;;;5046695;28;20651;-68
2024/01/12 14:13:53;;;;;;;17.07;6.03;;;;;;;;;;5043216;28;20068;-75
2024/01/12 14:16:21;;;;;;;13.70;5.83;;;;;;;;;;5038851;28;20041;-71
2024/01/12 14:18:50;;;;;;;9.90;4.63;;;;;;;;;;5036405;28;20057;-70
2024/01/12 14:21:16;;;;;;;13.30;6.33;;;;;;;;;;5040107;28;20067;-68
2024/01/12 14:23:41;;;;;;;13.37;5.57;;;;;;;;;;5063482;28;20072;-71
2024/01/12 14:26:08;;;;;;;9.47;5.13;;;;;;;;;;5059291;28;20026;-69
2024/01/12 14:28:34;;;;;;;10.67;5.77;;;;;;;;;;5036874;28;20037;-69